createdAt,value
2018-06-12T00:01:27.087Z,14.2
2018-06-12T00:06:55.739Z,14.2
2018-06-12T00:12:24.445Z,14.3
2018-06-12T00:17:54.191Z,14.3
2018-06-12T00:23:22.722Z,14.3
2018-06-12T00:28:51.363Z,14.2
2018-06-12T00:34:20.104Z,14.2
2018-06-12T00:39:49.684Z,14.2
2018-06-12T00:45:19.450Z,14.1
2018-06-12T00:50:48.990Z,14.1
2018-06-12T00:56:18.654Z,14.1
2018-06-12T01:01:48.288Z,14.1
2018-06-12T01:07:17.024Z,14.1
2018-06-12T01:12:45.541Z,14.1
2018-06-12T01:18:14.365Z,14
2018-06-12T01:23:43.899Z,14
2018-06-12T01:29:12.478Z,14
2018-06-12T01:34:42.155Z,14
2018-06-12T01:40:11.738Z,14
2018-06-12T01:45:40.467Z,14
2018-06-12T01:51:09.995Z,13.9
2018-06-12T01:56:38.680Z,13.9
2018-06-12T02:02:07.262Z,13.9
2018-06-12T02:07:35.872Z,13.8
2018-06-12T02:13:05.526Z,13.8
2018-06-12T02:18:34.110Z,13.8
2018-06-12T02:24:03.820Z,13.7
2018-06-12T02:29:32.338Z,13.7
2018-06-12T02:35:00.921Z,13.7
2018-06-12T02:40:30.520Z,13.8
2018-06-12T02:46:00.240Z,13.7
2018-06-12T02:51:29.788Z,13.8
2018-06-12T02:56:58.609Z,13.8
2018-06-12T03:02:27.082Z,13.8
2018-06-12T03:07:56.649Z,13.7
2018-06-12T03:13:26.285Z,13.7
2018-06-12T03:18:56.060Z,13.7
2018-06-12T03:24:24.509Z,13.6
2018-06-12T03:29:54.018Z,13.6
2018-06-12T03:35:22.602Z,13.7
2018-06-12T03:40:51.211Z,13.7
2018-06-12T03:46:20.791Z,13.7
2018-06-12T03:51:49.424Z,13.7
2018-06-12T03:57:19.036Z,13.7
2018-06-12T04:02:47.703Z,13.7
2018-06-12T04:08:16.358Z,13.6
2018-06-12T04:13:45.840Z,13.7
2018-06-12T04:19:15.494Z,13.7
2018-06-12T04:24:44.067Z,13.7
2018-06-12T04:30:12.725Z,13.7
2018-06-12T04:35:42.357Z,13.7
2018-06-12T04:41:10.993Z,13.7
2018-06-12T04:46:39.486Z,13.7
2018-06-12T04:52:09.110Z,13.7
2018-06-12T04:57:38.939Z,13.8
2018-06-12T05:03:07.338Z,13.8
2018-06-12T05:08:36.939Z,13.8
2018-06-12T05:14:06.640Z,13.8
2018-06-12T05:19:35.177Z,13.8
2018-06-12T05:25:03.773Z,13.8
2018-06-12T05:30:32.405Z,13.8
2018-06-12T05:36:02.087Z,13.9
2018-06-12T05:41:31.658Z,14
2018-06-12T05:47:01.256Z,14
2018-06-12T05:52:30.852Z,14
2018-06-12T05:58:00.447Z,14
2018-06-12T06:03:29.082Z,14
2018-06-12T06:08:58.732Z,14.1
2018-06-12T06:14:28.403Z,14.2
2018-06-12T06:19:57.030Z,14.2
2018-06-12T06:25:26.834Z,14.2
2018-06-12T06:30:55.464Z,14.2
2018-06-12T06:36:25.029Z,14.3
2018-06-12T06:41:54.040Z,14.4
2018-06-12T06:47:22.387Z,14.5
2018-06-12T06:52:51.999Z,14.6
2018-06-12T06:58:20.671Z,14.6
2018-06-12T07:03:50.954Z,14.7
2018-06-12T07:09:20.192Z,14.7
2018-06-12T07:14:48.888Z,14.7
2018-06-12T07:20:17.518Z,14.7
2018-06-12T07:25:47.160Z,14.8
2018-06-12T07:31:16.933Z,15
2018-06-12T07:36:46.591Z,15.1
2018-06-12T07:42:15.322Z,15.2
2018-06-12T07:47:45.072Z,15.2
2018-06-12T07:53:14.793Z,15.2
2018-06-12T07:58:44.591Z,15
2018-06-12T08:04:14.258Z,15
2018-06-12T08:09:43.071Z,15
2018-06-12T08:15:11.742Z,15
2018-06-12T08:20:40.662Z,15
2018-06-12T08:26:09.123Z,15.2
2018-06-12T08:31:37.927Z,15.3
2018-06-12T08:37:07.677Z,15.4
2018-06-12T08:42:36.402Z,15.4
2018-06-12T08:48:05.400Z,15.4
2018-06-12T08:53:33.932Z,15.4
2018-06-12T08:53:34.528Z,15.4
2018-06-12T08:59:03.676Z,15.6
2018-06-12T08:59:04.426Z,15.6
2018-06-12T09:04:33.475Z,15.6
2018-06-12T09:10:03.316Z,15.5
2018-06-12T09:10:03.962Z,15.5
2018-06-12T09:15:32.965Z,15.3
2018-06-12T09:15:33.562Z,15.3
2018-06-12T09:21:01.762Z,15.2
2018-06-12T09:26:30.468Z,15.2
2018-06-12T09:31:59.246Z,15.4
2018-06-12T09:37:29.026Z,15.5
2018-06-12T09:42:59.060Z,15.4
2018-06-12T09:48:27.442Z,15.4
2018-06-12T09:53:57.533Z,15.3
2018-06-12T09:59:26.073Z,15.5
2018-06-12T10:04:55.900Z,15.7
2018-06-12T10:10:25.645Z,15.7
2018-06-12T10:15:54.408Z,15.8
2018-06-12T10:21:23.123Z,15.8
2018-06-12T10:26:51.903Z,15.9
2018-06-12T10:32:20.899Z,15.9
2018-06-12T10:37:49.560Z,15.9
2018-06-12T10:43:19.311Z,16
2018-06-12T10:48:48.144Z,16
2018-06-12T10:54:17.973Z,16
2018-06-12T10:59:47.942Z,16
2018-06-12T11:05:16.573Z,15.9
2018-06-12T11:10:45.424Z,15.8
2018-06-12T11:16:15.159Z,15.6
2018-06-12T11:21:45.102Z,15.6
2018-06-12T11:27:13.797Z,15.6
2018-06-12T11:32:42.494Z,15.5
2018-06-12T11:38:11.267Z,15.5
2018-06-12T11:43:41.020Z,15.7
2018-06-12T11:49:09.859Z,16
2018-06-12T11:54:39.674Z,16.2
2018-06-12T12:00:09.528Z,16.3
2018-06-12T12:05:38.338Z,16.1
2018-06-12T12:11:07.179Z,16
2018-06-12T12:16:35.981Z,15.8
2018-06-12T12:22:04.770Z,15.8
2018-06-12T12:27:34.530Z,15.7
2018-06-12T12:33:04.240Z,15.6
2018-06-12T12:38:34.542Z,15.5
2018-06-12T12:44:03.626Z,15.5
2018-06-12T12:49:33.782Z,15.5
2018-06-12T12:55:01.422Z,15.5
2018-06-12T13:00:31.449Z,15.7
2018-06-12T13:06:01.076Z,15.9
2018-06-12T13:11:28.850Z,16
2018-06-12T13:17:00.332Z,16.1
2018-06-12T13:22:27.519Z,16.1
2018-06-12T13:27:58.664Z,16
2018-06-12T13:33:28.950Z,16
2018-06-12T13:38:57.575Z,15.9
2018-06-12T13:44:27.145Z,15.8
2018-06-12T13:49:56.982Z,15.8
2018-06-12T13:55:25.357Z,15.9
2018-06-12T14:00:55.550Z,16
2018-06-12T14:06:24.008Z,15.9
2018-06-12T14:11:53.501Z,15.8
2018-06-12T14:17:21.922Z,15.6
2018-06-12T14:22:52.009Z,15.4
2018-06-12T14:28:21.073Z,15.4
2018-06-12T14:33:50.954Z,15.5
2018-06-12T14:39:21.403Z,15.5
2018-06-12T15:01:17.737Z,15.4
2018-06-12T15:06:47.085Z,15.4
2018-06-12T15:12:16.048Z,15.3
2018-06-12T15:17:44.856Z,15.2
2018-06-12T15:23:13.605Z,15.1
2018-06-12T15:28:43.383Z,15
2018-06-12T15:34:10.977Z,15
2018-06-12T15:39:42.286Z,15.1
2018-06-12T15:45:09.900Z,15.1
2018-06-12T15:50:41.507Z,15.2
2018-06-12T15:56:10.848Z,15.3
2018-06-12T16:01:38.062Z,15.3
2018-06-12T16:07:06.447Z,15.1
2018-06-12T16:12:35.110Z,15
2018-06-12T16:18:03.777Z,14.8
2018-06-12T16:23:33.542Z,14.7
2018-06-12T16:29:03.352Z,14.7
2018-06-12T16:34:31.880Z,14.8
2018-06-12T16:40:00.574Z,14.9
2018-06-12T16:45:29.239Z,14.8
2018-06-12T16:50:57.931Z,14.7
2018-06-12T16:56:26.643Z,14.6
2018-06-12T17:01:56.275Z,14.6
2018-06-12T17:07:25.146Z,14.8
2018-06-12T17:12:54.684Z,14.8
2018-06-12T17:18:23.396Z,14.8
2018-06-12T17:23:53.057Z,14.6
2018-06-12T17:29:22.760Z,14.5
2018-06-12T17:34:52.550Z,14.5
2018-06-12T17:40:22.043Z,14.4
2018-06-12T17:45:50.717Z,14.3
2018-06-12T17:51:20.374Z,14.2
2018-06-12T17:56:49.281Z,14.2
2018-06-12T18:02:18.643Z,14.2
2018-06-12T18:07:48.246Z,14.2
2018-06-12T18:13:16.912Z,14.2
2018-06-12T18:18:45.508Z,14.2
2018-06-12T18:24:15.240Z,14.1
2018-06-12T18:29:44.866Z,14.1
2018-06-12T18:35:14.412Z,14.1
2018-06-12T18:40:43.113Z,14
2018-06-12T18:46:11.631Z,14
2018-06-12T18:51:40.279Z,14
2018-06-12T18:57:09.847Z,13.9
2018-06-12T19:02:38.476Z,13.9
2018-06-12T19:08:08.107Z,13.8
2018-06-12T19:13:36.643Z,13.8
2018-06-12T19:19:06.229Z,13.8
2018-06-12T19:24:34.900Z,13.7
2018-06-12T19:30:03.469Z,13.7
2018-06-12T19:35:33.036Z,13.6
2018-06-12T19:41:01.649Z,13.5
2018-06-12T19:46:31.240Z,13.5
2018-06-12T19:51:59.912Z,13.5
2018-06-12T19:57:28.412Z,13.5
2018-06-12T20:02:57.005Z,13.5
2018-06-12T20:08:25.595Z,13.5
2018-06-12T20:13:54.213Z,13.5
2018-06-12T20:19:23.780Z,13.5
2018-06-12T20:24:52.408Z,13.5
2018-06-12T20:30:20.934Z,13.5
2018-06-12T20:35:49.514Z,13.5
2018-06-12T20:41:18.104Z,13.5
2018-06-12T20:46:47.849Z,13.5
2018-06-12T20:52:16.315Z,13.5
2018-06-12T20:57:44.961Z,13.4
2018-06-12T21:03:13.441Z,13.3
2018-06-12T21:08:42.046Z,13.4
2018-06-12T21:14:11.703Z,13.4
2018-06-12T21:19:40.298Z,13.4
2018-06-12T21:25:08.754Z,13.4
2018-06-12T21:30:38.354Z,13.4
2018-06-12T21:36:06.915Z,13.3
2018-06-12T21:41:35.555Z,13.4
2018-06-12T21:47:05.101Z,13.4
2018-06-12T21:52:34.675Z,13.3
2018-06-12T21:58:03.277Z,13.3
2018-06-12T22:03:31.886Z,13.3
2018-06-12T22:09:01.410Z,13.2
2018-06-12T22:14:29.924Z,13.2
2018-06-12T22:19:58.463Z,13.1
2018-06-12T22:25:27.052Z,13.1
2018-06-12T22:30:55.701Z,13.1
2018-06-12T22:36:25.129Z,13.1
2018-06-12T22:41:54.662Z,13.1
2018-06-12T22:47:23.207Z,13
2018-06-12T22:52:51.743Z,13
2018-06-12T22:58:20.447Z,13
2018-06-12T23:03:48.780Z,13
2018-06-12T23:09:17.996Z,13
2018-06-12T23:14:46.879Z,13
2018-06-12T23:20:15.521Z,13
2018-06-12T23:25:44.083Z,13
2018-06-12T23:31:12.482Z,12.9
2018-06-12T23:36:41.015Z,12.9
2018-06-12T23:42:10.573Z,12.8
2018-06-12T23:47:39.058Z,12.8
2018-06-12T23:53:08.629Z,12.7
2018-06-12T23:58:37.071Z,12.7
